sensor_id;sensor_type;location;lat;lon;timestamp;pressure;altitude;pressure_sealevel;temperature;humidity
60375;BME280;70244;48.792;9.172;2023-06-14T04:16:44;97168.32;;;26.71;38.12
60375;BME280;70244;48.792;9.172;2023-06-14T04:19:15;97170.94;;;26.79;38.00
60375;BME280;70244;48.792;9.172;2023-06-14T04:21:15;97175.59;;;26.69;38.38
60375;BME280;70244;48.792;9.172;2023-06-14T04:23:45;97177.49;;;26.95;37.72
60375;BME280;70244;48.792;9.172;2023-06-14T04:26:15;97180.77;;;26.64;38.34
60375;BME280;70244;48.792;9.172;2023-06-14T04:28:46;97186.89;;;26.75;38.09
60375;BME280;70244;48.792;9.172;2023-06-14T04:31:17;97182.69;;;27.37;36.68
60375;BME280;70244;48.792;9.172;2023-06-14T04:33:47;97184.78;;;27.38;36.73
60375;BME280;70244;48.792;9.172;2023-06-14T04:36:18;97187.45;;;27.42;36.63
60375;BME280;70244;48.792;9.172;2023-06-14T04:38:49;97183.54;;;27.54;36.35
60375;BME280;70244;48.792;9.172;2023-06-14T04:41:20;97185.71;;;27.80;35.69
60375;BME280;70244;48.792;9.172;2023-06-14T04:43:50;97187.89;;;28.03;35.14
60375;BME280;70244;48.792;9.172;2023-06-14T04:46:20;97186.26;;;27.77;35.62
60375;BME280;70244;48.792;9.172;2023-06-14T04:48:51;97188.98;;;27.77;35.60
60375;BME280;70244;48.792;9.172;2023-06-14T04:51:21;97193.10;;;27.85;35.41
60375;BME280;70244;48.792;9.172;2023-06-14T04:53:52;97201.24;;;27.90;35.35
60375;BME280;70244;48.792;9.172;2023-06-14T04:56:23;97205.49;;;27.64;35.81
60375;BME280;70244;48.792;9.172;2023-06-14T04:58:53;97208.80;;;28.09;34.98
60375;BME280;70244;48.792;9.172;2023-06-14T05:01:24;97213.02;;;27.91;35.21
60375;BME280;70244;48.792;9.172;2023-06-14T05:03:54;97215.47;;;27.52;36.08
60375;BME280;70244;48.792;9.172;2023-06-14T05:06:25;97219.32;;;27.73;35.66
60375;BME280;70244;48.792;9.172;2023-06-14T05:08:56;97221.39;;;28.02;34.98
60375;BME280;70244;48.792;9.172;2023-06-14T05:11:26;97222.65;;;28.01;35.31
60375;BME280;70244;48.792;9.172;2023-06-14T05:13:57;97221.70;;;27.19;36.98
60375;BME280;70244;48.792;9.172;2023-06-14T05:16:27;97220.66;;;27.18;37.52
60375;BME280;70244;48.792;9.172;2023-06-14T05:18:58;97221.59;;;27.44;36.99
60375;BME280;70244;48.792;9.172;2023-06-14T05:21:29;97222.99;;;27.44;37.11
60375;BME280;70244;48.792;9.172;2023-06-14T05:23:59;97223.96;;;27.25;38.25
60375;BME280;70244;48.792;9.172;2023-06-14T05:26:30;97226.97;;;27.05;38.82
60375;BME280;70244;48.792;9.172;2023-06-14T05:29:00;97227.58;;;26.47;38.63
60375;BME280;70244;48.792;9.172;2023-06-14T05:31:31;97224.49;;;26.75;35.00
60375;BME280;70244;48.792;9.172;2023-06-14T05:34:01;97223.09;;;26.71;37.66
60375;BME280;70244;48.792;9.172;2023-06-14T05:36:32;97223.49;;;26.78;37.64
60375;BME280;70244;48.792;9.172;2023-06-14T05:39:02;97226.04;;;27.08;37.07
60375;BME280;70244;48.792;9.172;2023-06-14T05:41:33;97229.90;;;27.05;34.74
60375;BME280;70244;48.792;9.172;2023-06-14T05:44:03;97233.62;;;27.55;35.01
60375;BME280;70244;48.792;9.172;2023-06-14T05:46:34;97235.64;;;28.17;33.04
60375;BME280;70244;48.792;9.172;2023-06-14T05:49:04;97233.21;;;28.43;32.46
60375;BME280;70244;48.792;9.172;2023-06-14T05:51:35;97233.68;;;28.45;30.95
60375;BME280;70244;48.792;9.172;2023-06-14T05:54:06;97229.26;;;28.01;32.38
60375;BME280;70244;48.792;9.172;2023-06-14T05:56:36;97227.09;;;27.56;32.58
60375;BME280;70244;48.792;9.172;2023-06-14T05:59:07;97224.29;;;27.76;31.96
60375;BME280;70244;48.792;9.172;2023-06-14T06:01:37;97229.52;;;26.71;33.92
60375;BME280;70244;48.792;9.172;2023-06-14T06:04:08;97234.11;;;26.19;33.85
60375;BME280;70244;48.792;9.172;2023-06-14T06:06:38;97232.63;;;27.01;32.60
60375;BME280;70244;48.792;9.172;2023-06-14T06:09:08;97234.29;;;27.04;33.14
60375;BME280;70244;48.792;9.172;2023-06-14T06:11:39;97235.14;;;27.50;32.83
60375;BME280;70244;48.792;9.172;2023-06-14T06:14:10;97235.10;;;27.58;31.11
60375;BME280;70244;48.792;9.172;2023-06-14T06:16:40;97235.34;;;27.78;31.81
60375;BME280;70244;48.792;9.172;2023-06-14T06:19:10;97242.17;;;27.72;32.00
60375;BME280;70244;48.792;9.172;2023-06-14T06:21:41;97242.36;;;28.00;31.45
60375;BME280;70244;48.792;9.172;2023-06-14T06:24:11;97246.09;;;26.66;32.49
60375;BME280;70244;48.792;9.172;2023-06-14T06:26:42;97245.51;;;27.65;30.67
60375;BME280;70244;48.792;9.172;2023-06-14T06:29:13;97249.60;;;26.90;31.83
60375;BME280;70244;48.792;9.172;2023-06-14T06:31:43;97245.45;;;27.35;32.11
60375;BME280;70244;48.792;9.172;2023-06-14T06:34:14;97249.12;;;27.63;31.23
60375;BME280;70244;48.792;9.172;2023-06-14T06:36:44;97249.18;;;27.90;31.26
60375;BME280;70244;48.792;9.172;2023-06-14T06:39:15;97248.99;;;27.89;30.94
60375;BME280;70244;48.792;9.172;2023-06-14T06:41:46;97252.16;;;28.11;30.35
60375;BME280;70244;48.792;9.172;2023-06-14T06:44:16;97252.45;;;27.64;31.34
60375;BME280;70244;48.792;9.172;2023-06-14T06:46:46;97254.03;;;28.12;30.71
60375;BME280;70244;48.792;9.172;2023-06-14T06:49:17;97251.30;;;27.40;31.69
60375;BME280;70244;48.792;9.172;2023-06-14T06:54:18;97263.69;;;28.37;30.74
60375;BME280;70244;48.792;9.172;2023-06-14T06:56:49;97269.47;;;28.65;30.43
60375;BME280;70244;48.792;9.172;2023-06-14T06:59:19;97271.74;;;27.21;32.14
60375;BME280;70244;48.792;9.172;2023-06-14T07:01:50;97276.54;;;28.16;30.91
60375;BME280;70244;48.792;9.172;2023-06-14T07:04:21;97278.75;;;28.37;30.33
60375;BME280;70244;48.792;9.172;2023-06-14T07:06:51;97279.41;;;28.43;30.19
60375;BME280;70244;48.792;9.172;2023-06-14T07:09:22;97284.16;;;27.39;30.70
60375;BME280;70244;48.792;9.172;2023-06-14T07:11:52;97282.84;;;28.02;30.39
60375;BME280;70244;48.792;9.172;2023-06-14T07:14:23;97281.09;;;28.40;30.02
60375;BME280;70244;48.792;9.172;2023-06-14T07:16:53;97281.44;;;28.30;30.39
60375;BME280;70244;48.792;9.172;2023-06-14T07:19:23;97284.48;;;28.59;29.62
60375;BME280;70244;48.792;9.172;2023-06-14T07:21:54;97288.38;;;27.84;30.93
60375;BME280;70244;48.792;9.172;2023-06-14T07:24:25;97291.56;;;28.59;29.74
60375;BME280;70244;48.792;9.172;2023-06-14T07:26:55;97293.83;;;28.09;29.90
60375;BME280;70244;48.792;9.172;2023-06-14T07:29:26;97297.54;;;28.54;28.99
60375;BME280;70244;48.792;9.172;2023-06-14T07:31:57;97301.29;;;28.58;29.58
60375;BME280;70244;48.792;9.172;2023-06-14T07:34:27;97304.33;;;28.51;29.70
60375;BME280;70244;48.792;9.172;2023-06-14T07:36:58;97306.13;;;28.47;29.36
60375;BME280;70244;48.792;9.172;2023-06-14T07:39:28;97311.14;;;28.56;29.67
60375;BME280;70244;48.792;9.172;2023-06-14T07:41:59;97308.45;;;28.76;29.62
60375;BME280;70244;48.792;9.172;2023-06-14T07:44:29;97308.80;;;28.43;30.16
60375;BME280;70244;48.792;9.172;2023-06-14T07:47:00;97315.47;;;28.81;29.61
60375;BME280;70244;48.792;9.172;2023-06-14T07:49:30;97313.27;;;28.82;29.66
60375;BME280;70244;48.792;9.172;2023-06-14T07:52:01;97310.81;;;29.01;29.33
60375;BME280;70244;48.792;9.172;2023-06-14T07:54:31;97312.23;;;29.00;29.59
60375;BME280;70244;48.792;9.172;2023-06-14T07:57:02;97314.66;;;29.05;29.52
60375;BME280;70244;48.792;9.172;2023-06-14T07:59:32;97316.13;;;28.91;29.68
60375;BME280;70244;48.792;9.172;2023-06-14T08:02:04;97309.63;;;29.00;29.57
60375;BME280;70244;48.792;9.172;2023-06-14T08:04:34;97309.83;;;29.04;29.33
60375;BME280;70244;48.792;9.172;2023-06-14T08:07:04;97309.00;;;28.88;29.38
60375;BME280;70244;48.792;9.172;2023-06-14T08:09:35;97309.45;;;28.59;29.81
60375;BME280;70244;48.792;9.172;2023-06-14T08:12:07;97309.15;;;28.79;29.61
60375;BME280;70244;48.792;9.172;2023-06-14T08:14:36;97309.46;;;28.85;29.68
60375;BME280;70244;48.792;9.172;2023-06-14T08:17:07;97311.54;;;28.53;30.02
60375;BME280;70244;48.792;9.172;2023-06-14T08:19:38;97311.31;;;28.95;29.61
60375;BME280;70244;48.792;9.172;2023-06-14T08:22:08;97314.91;;;28.90;29.91
60375;BME280;70244;48.792;9.172;2023-06-14T08:24:39;97314.10;;;28.61;30.56
60375;BME280;70244;48.792;9.172;2023-06-14T08:27:09;97318.98;;;28.61;30.75
60375;BME280;70244;48.792;9.172;2023-06-14T08:29:39;97319.18;;;28.14;31.80
60375;BME280;70244;48.792;9.172;2023-06-14T08:32:09;97320.58;;;28.53;31.45
60375;BME280;70244;48.792;9.172;2023-06-14T08:34:39;97315.94;;;28.55;31.33
60375;BME280;70244;48.792;9.172;2023-06-14T08:37:10;97320.01;;;28.85;30.82
60375;BME280;70244;48.792;9.172;2023-06-14T08:39:41;97318.11;;;28.41;31.94
60375;BME280;70244;48.792;9.172;2023-06-14T08:42:12;97323.11;;;28.67;31.41
60375;BME280;70244;48.792;9.172;2023-06-14T08:44:41;97322.65;;;28.49;31.40
60375;BME280;70244;48.792;9.172;2023-06-14T08:47:11;97325.01;;;28.08;31.92
60375;BME280;70244;48.792;9.172;2023-06-14T08:49:46;97322.83;;;28.47;32.47
60375;BME280;70244;48.792;9.172;2023-06-14T08:52:13;97323.41;;;28.48;32.94
60375;BME280;70244;48.792;9.172;2023-06-14T08:54:43;97326.14;;;28.87;31.90
60375;BME280;70244;48.792;9.172;2023-06-14T08:57:14;97330.44;;;28.77;33.09
60375;BME280;70244;48.792;9.172;2023-06-14T08:59:47;97326.11;;;28.78;32.01
60375;BME280;70244;48.792;9.172;2023-06-14T09:02:14;97328.47;;;28.89;32.31
60375;BME280;70244;48.792;9.172;2023-06-14T09:04:44;97330.57;;;29.04;31.85
60375;BME280;70244;48.792;9.172;2023-06-14T09:07:15;97323.25;;;29.13;30.83
60375;BME280;70244;48.792;9.172;2023-06-14T09:09:45;97326.29;;;29.04;32.12
60375;BME280;70244;48.792;9.172;2023-06-14T09:12:16;97326.29;;;28.69;30.94
60375;BME280;70244;48.792;9.172;2023-06-14T09:14:46;97326.79;;;28.65;31.19
60375;BME280;70244;48.792;9.172;2023-06-14T09:17:17;97323.97;;;28.93;31.12
60375;BME280;70244;48.792;9.172;2023-06-14T09:19:48;97321.96;;;28.84;31.56
60375;BME280;70244;48.792;9.172;2023-06-14T09:22:18;97327.22;;;28.86;31.40
60375;BME280;70244;48.792;9.172;2023-06-14T09:24:49;97325.46;;;28.35;32.29
60375;BME280;70244;48.792;9.172;2023-06-14T09:27:19;97328.98;;;28.86;31.51
60375;BME280;70244;48.792;9.172;2023-06-14T09:29:50;97333.09;;;29.06;31.10
60375;BME280;70244;48.792;9.172;2023-06-14T09:32:21;97330.10;;;28.07;32.87
60375;BME280;70244;48.792;9.172;2023-06-14T09:34:51;97328.04;;;28.64;32.20
60375;BME280;70244;48.792;9.172;2023-06-14T09:37:27;97328.49;;;28.84;31.56
60375;BME280;70244;48.792;9.172;2023-06-14T09:39:52;97330.49;;;28.80;31.81
60375;BME280;70244;48.792;9.172;2023-06-14T09:42:22;97335.94;;;28.79;30.99
60375;BME280;70244;48.792;9.172;2023-06-14T09:44:55;97340.10;;;28.87;31.00
60375;BME280;70244;48.792;9.172;2023-06-14T09:47:24;97339.32;;;28.79;31.08
60375;BME280;70244;48.792;9.172;2023-06-14T09:49:55;97336.79;;;28.71;31.33
60375;BME280;70244;48.792;9.172;2023-06-14T09:52:25;97330.96;;;28.93;31.28
60375;BME280;70244;48.792;9.172;2023-06-14T09:54:55;97328.18;;;29.11;30.85
60375;BME280;70244;48.792;9.172;2023-06-14T09:57:26;97328.11;;;29.14;31.06
60375;BME280;70244;48.792;9.172;2023-06-14T09:59:57;97326.90;;;29.21;30.73
60375;BME280;70244;48.792;9.172;2023-06-14T10:02:28;97330.84;;;29.04;31.12
60375;BME280;70244;48.792;9.172;2023-06-14T10:05:01;97330.94;;;28.81;30.66
60375;BME280;70244;48.792;9.172;2023-06-14T10:07:28;97324.08;;;29.03;30.96
60375;BME280;70244;48.792;9.172;2023-06-14T10:09:57;97322.15;;;28.86;30.33
60375;BME280;70244;48.792;9.172;2023-06-14T10:12:27;97321.12;;;29.09;29.32
60375;BME280;70244;48.792;9.172;2023-06-14T10:14:58;97330.56;;;28.61;29.61
60375;BME280;70244;48.792;9.172;2023-06-14T10:17:35;97328.04;;;28.56;30.05
60375;BME280;70244;48.792;9.172;2023-06-14T10:20:19;97325.27;;;28.99;29.61
60375;BME280;70244;48.792;9.172;2023-06-14T10:22:34;97327.47;;;29.06;29.26
60375;BME280;70244;48.792;9.172;2023-06-14T10:25:01;97324.26;;;29.15;29.10
60375;BME280;70244;48.792;9.172;2023-06-14T10:27:31;97320.84;;;29.10;28.99
60375;BME280;70244;48.792;9.172;2023-06-14T10:30:03;97320.89;;;29.14;30.14
60375;BME280;70244;48.792;9.172;2023-06-14T10:32:32;97320.34;;;29.03;30.86
60375;BME280;70244;48.792;9.172;2023-06-14T10:35:05;97318.86;;;29.12;30.24
60375;BME280;70244;48.792;9.172;2023-06-14T10:37:33;97318.22;;;29.06;29.97
60375;BME280;70244;48.792;9.172;2023-06-14T10:40:07;97316.93;;;29.11;30.98
60375;BME280;70244;48.792;9.172;2023-06-14T10:42:35;97317.02;;;29.24;30.63
60375;BME280;70244;48.792;9.172;2023-06-14T10:45:06;97316.14;;;29.33;30.33
60375;BME280;70244;48.792;9.172;2023-06-14T10:47:36;97321.01;;;29.39;30.33
60375;BME280;70244;48.792;9.172;2023-06-14T10:50:08;97321.47;;;29.47;29.84
60375;BME280;70244;48.792;9.172;2023-06-14T10:52:39;97319.71;;;29.42;30.15
60375;BME280;70244;48.792;9.172;2023-06-14T10:55:09;97316.70;;;29.41;29.98
60375;BME280;70244;48.792;9.172;2023-06-14T10:57:41;97313.38;;;29.43;30.12
60375;BME280;70244;48.792;9.172;2023-06-14T11:00:10;97316.99;;;29.60;29.64
60375;BME280;70244;48.792;9.172;2023-06-14T11:05:14;97323.41;;;29.37;30.04
60375;BME280;70244;48.792;9.172;2023-06-14T11:07:48;97318.00;;;29.49;29.30
60375;BME280;70244;48.792;9.172;2023-06-14T11:10:20;97314.75;;;29.21;29.22
60375;BME280;70244;48.792;9.172;2023-06-14T11:12:41;97310.66;;;29.20;30.41
60375;BME280;70244;48.792;9.172;2023-06-14T11:15:12;97309.82;;;29.29;29.54
60375;BME280;70244;48.792;9.172;2023-06-14T11:17:51;97307.86;;;29.06;29.59
60375;BME280;70244;48.792;9.172;2023-06-14T11:20:14;97302.76;;;29.24;29.97
60375;BME280;70244;48.792;9.172;2023-06-14T11:22:45;97303.96;;;29.39;29.69
60375;BME280;70244;48.792;9.172;2023-06-14T11:25:15;97307.67;;;29.34;29.36
60375;BME280;70244;48.792;9.172;2023-06-14T11:27:45;97310.22;;;29.38;29.21
60375;BME280;70244;48.792;9.172;2023-06-14T11:30:17;97311.65;;;29.38;29.45
60375;BME280;70244;48.792;9.172;2023-06-14T11:32:47;97314.40;;;29.54;29.01
60375;BME280;70244;48.792;9.172;2023-06-14T11:35:18;97315.68;;;29.63;28.79
60375;BME280;70244;48.792;9.172;2023-06-14T11:37:49;97310.47;;;29.51;28.42
60375;BME280;70244;48.792;9.172;2023-06-14T11:40:18;97306.20;;;29.43;28.19
60375;BME280;70244;48.792;9.172;2023-06-14T11:42:48;97306.57;;;29.46;28.61
60375;BME280;70244;48.792;9.172;2023-06-14T11:45:19;97303.81;;;29.55;28.55
60375;BME280;70244;48.792;9.172;2023-06-14T11:47:50;97312.08;;;29.42;28.41
60375;BME280;70244;48.792;9.172;2023-06-14T11:50:20;97309.36;;;29.49;28.31
60375;BME280;70244;48.792;9.172;2023-06-14T11:52:53;97311.78;;;29.46;28.24
60375;BME280;70244;48.792;9.172;2023-06-14T11:55:22;97307.37;;;29.40;28.85
60375;BME280;70244;48.792;9.172;2023-06-14T11:57:54;97305.29;;;29.44;28.28
60375;BME280;70244;48.792;9.172;2023-06-14T12:00:25;97302.84;;;29.37;29.52
60375;BME280;70244;48.792;9.172;2023-06-14T12:02:53;97304.90;;;29.40;29.66
60375;BME280;70244;48.792;9.172;2023-06-14T12:05:23;97303.34;;;29.38;29.26
60375;BME280;70244;48.792;9.172;2023-06-14T12:07:58;97304.67;;;29.27;28.59
60375;BME280;70244;48.792;9.172;2023-06-14T12:10:24;97297.90;;;29.33;29.29
60375;BME280;70244;48.792;9.172;2023-06-14T12:12:57;97303.15;;;29.29;28.96
60375;BME280;70244;48.792;9.172;2023-06-14T12:15:28;97306.07;;;29.36;28.97
60375;BME280;70244;48.792;9.172;2023-06-14T12:17:56;97301.15;;;29.46;28.59
60375;BME280;70244;48.792;9.172;2023-06-14T12:20:29;97299.68;;;29.53;28.31
60375;BME280;70244;48.792;9.172;2023-06-14T12:22:57;97293.30;;;29.54;28.53
60375;BME280;70244;48.792;9.172;2023-06-14T12:25:27;97291.96;;;29.56;28.74
60375;BME280;70244;48.792;9.172;2023-06-14T12:27:57;97297.54;;;29.49;28.17
60375;BME280;70244;48.792;9.172;2023-06-14T12:30:27;97290.61;;;29.57;28.36
60375;BME280;70244;48.792;9.172;2023-06-14T12:32:57;97297.91;;;29.42;28.40
60375;BME280;70244;48.792;9.172;2023-06-14T12:35:27;97295.09;;;29.44;28.20
60375;BME280;70244;48.792;9.172;2023-06-14T12:37:58;97293.67;;;29.48;27.86
60375;BME280;70244;48.792;9.172;2023-06-14T12:40:28;97292.05;;;29.42;27.71
60375;BME280;70244;48.792;9.172;2023-06-14T12:42:59;97297.13;;;29.24;27.85
60375;BME280;70244;48.792;9.172;2023-06-14T12:45:29;97291.14;;;29.21;27.58
60375;BME280;70244;48.792;9.172;2023-06-14T12:47:59;97291.86;;;29.37;27.09
60375;BME280;70244;48.792;9.172;2023-06-14T12:50:29;97289.01;;;29.27;27.27
60375;BME280;70244;48.792;9.172;2023-06-14T12:53:00;97292.34;;;29.31;27.49
60375;BME280;70244;48.792;9.172;2023-06-14T12:55:31;97295.09;;;29.37;26.97
60375;BME280;70244;48.792;9.172;2023-06-14T12:58:01;97294.97;;;29.36;27.22
60375;BME280;70244;48.792;9.172;2023-06-14T13:00:31;97299.84;;;29.37;27.72
60375;BME280;70244;48.792;9.172;2023-06-14T13:03:02;97297.02;;;29.44;28.31
60375;BME280;70244;48.792;9.172;2023-06-14T13:05:33;97298.74;;;29.42;28.49
60375;BME280;70244;48.792;9.172;2023-06-14T13:08:04;97295.47;;;29.17;29.56
60375;BME280;70244;48.792;9.172;2023-06-14T13:10:34;97297.82;;;29.50;28.45
60375;BME280;70244;48.792;9.172;2023-06-14T13:13:04;97293.89;;;29.26;29.09
60375;BME280;70244;48.792;9.172;2023-06-14T13:15:35;97298.46;;;29.31;29.00
60375;BME280;70244;48.792;9.172;2023-06-14T13:18:06;97304.17;;;29.33;29.37
60375;BME280;70244;48.792;9.172;2023-06-14T13:20:36;97303.96;;;29.35;28.94
60375;BME280;70244;48.792;9.172;2023-06-14T13:23:08;97299.04;;;29.42;28.89
60375;BME280;70244;48.792;9.172;2023-06-14T13:25:38;97295.43;;;29.39;28.01
60375;BME280;70244;48.792;9.172;2023-06-14T13:28:08;97295.62;;;29.51;28.22
60375;BME280;70244;48.792;9.172;2023-06-14T13:30:39;97304.32;;;29.39;28.30
60375;BME280;70244;48.792;9.172;2023-06-14T13:33:09;97302.48;;;29.49;28.80
60375;BME280;70244;48.792;9.172;2023-06-14T13:35:39;97301.56;;;29.52;28.69
60375;BME280;70244;48.792;9.172;2023-06-14T13:38:10;97303.09;;;29.36;29.15
60375;BME280;70244;48.792;9.172;2023-06-14T13:40:40;97301.97;;;29.46;28.85
60375;BME280;70244;48.792;9.172;2023-06-14T13:43:11;97299.98;;;29.51;28.57
60375;BME280;70244;48.792;9.172;2023-06-14T13:45:42;97300.94;;;29.53;27.77
60375;BME280;70244;48.792;9.172;2023-06-14T13:48:12;97294.40;;;29.57;28.39
60375;BME280;70244;48.792;9.172;2023-06-14T13:50:43;97295.53;;;29.69;28.70
60375;BME280;70244;48.792;9.172;2023-06-14T13:53:13;97291.20;;;29.16;28.89
60375;BME280;70244;48.792;9.172;2023-06-14T13:55:44;97289.92;;;29.37;29.61
60375;BME280;70244;48.792;9.172;2023-06-14T13:58:14;97286.18;;;29.36;30.04
60375;BME280;70244;48.792;9.172;2023-06-14T14:00:44;97282.58;;;29.50;29.46
60375;BME280;70244;48.792;9.172;2023-06-14T14:03:14;97286.07;;;29.52;29.13
60375;BME280;70244;48.792;9.172;2023-06-14T14:05:45;97285.23;;;29.50;28.79
60375;BME280;70244;48.792;9.172;2023-06-14T14:08:15;97287.80;;;29.61;28.93
60375;BME280;70244;48.792;9.172;2023-06-14T14:10:46;97285.09;;;29.66;28.56
60375;BME280;70244;48.792;9.172;2023-06-14T14:13:16;97278.07;;;29.60;29.15
60375;BME280;70244;48.792;9.172;2023-06-14T14:15:46;97278.79;;;29.66;28.94
60375;BME280;70244;48.792;9.172;2023-06-14T14:18:16;97276.23;;;29.70;28.61
60375;BME280;70244;48.792;9.172;2023-06-14T14:20:47;97275.42;;;29.78;28.78
60375;BME280;70244;48.792;9.172;2023-06-14T14:23:17;97283.58;;;29.77;28.75
60375;BME280;70244;48.792;9.172;2023-06-14T14:25:48;97284.73;;;29.74;29.35
60375;BME280;70244;48.792;9.172;2023-06-14T14:28:18;97289.18;;;29.80;29.08
60375;BME280;70244;48.792;9.172;2023-06-14T14:30:49;97290.99;;;29.90;29.04
60375;BME280;70244;48.792;9.172;2023-06-14T14:33:19;97286.81;;;29.33;30.23
60375;BME280;70244;48.792;9.172;2023-06-14T14:35:49;97285.38;;;29.52;29.72
60375;BME280;70244;48.792;9.172;2023-06-14T14:38:20;97294.21;;;29.37;29.97
60375;BME280;70244;48.792;9.172;2023-06-14T14:40:50;97292.02;;;29.61;29.41
60375;BME280;70244;48.792;9.172;2023-06-14T14:43:21;97293.53;;;29.60;30.12
60375;BME280;70244;48.792;9.172;2023-06-14T14:45:51;97292.63;;;29.86;29.33
60375;BME280;70244;48.792;9.172;2023-06-14T14:48:22;97295.41;;;29.56;29.15
60375;BME280;70244;48.792;9.172;2023-06-14T14:50:52;97294.03;;;29.72;29.50
60375;BME280;70244;48.792;9.172;2023-06-14T14:53:23;97297.19;;;29.79;29.34
60375;BME280;70244;48.792;9.172;2023-06-14T14:55:54;97296.36;;;29.94;29.00
60375;BME280;70244;48.792;9.172;2023-06-14T14:58:24;97294.39;;;29.86;28.93
60375;BME280;70244;48.792;9.172;2023-06-14T15:00:54;97294.30;;;29.93;28.27
60375;BME280;70244;48.792;9.172;2023-06-14T15:03:25;97295.44;;;29.88;28.36
60375;BME280;70244;48.792;9.172;2023-06-14T15:05:56;97294.49;;;29.90;28.37
60375;BME280;70244;48.792;9.172;2023-06-14T15:08:26;97291.86;;;29.82;28.12
60375;BME280;70244;48.792;9.172;2023-06-14T15:10:57;97293.49;;;29.70;28.95
60375;BME280;70244;48.792;9.172;2023-06-14T15:13:28;97292.95;;;29.65;29.32
60375;BME280;70244;48.792;9.172;2023-06-14T15:15:58;97294.23;;;29.58;29.15
60375;BME280;70244;48.792;9.172;2023-06-14T15:18:29;97297.75;;;29.54;29.54
60375;BME280;70244;48.792;9.172;2023-06-14T15:20:59;97298.15;;;29.41;30.27
60375;BME280;70244;48.792;9.172;2023-06-14T15:23:30;97298.44;;;29.24;29.52
60375;BME280;70244;48.792;9.172;2023-06-14T15:26:00;97291.72;;;29.10;30.41
60375;BME280;70244;48.792;9.172;2023-06-14T15:28:30;97291.48;;;28.35;31.37
60375;BME280;70244;48.792;9.172;2023-06-14T15:31:01;97291.42;;;29.14;31.01
60375;BME280;70244;48.792;9.172;2023-06-14T15:33:31;97292.01;;;28.78;30.68
60375;BME280;70244;48.792;9.172;2023-06-14T15:36:02;97291.56;;;28.77;30.87
60375;BME280;70244;48.792;9.172;2023-06-14T15:38:32;97290.86;;;28.18;29.95
60375;BME280;70244;48.792;9.172;2023-06-14T15:41:03;97284.24;;;28.69;28.92
60375;BME280;70244;48.792;9.172;2023-06-14T15:43:34;97288.32;;;27.90;30.48
60375;BME280;70244;48.792;9.172;2023-06-14T15:46:04;97288.29;;;28.66;29.61
60375;BME280;70244;48.792;9.172;2023-06-14T15:48:35;97290.51;;;29.13;29.61
60375;BME280;70244;48.792;9.172;2023-06-14T15:51:05;97292.98;;;29.36;29.14
60375;BME280;70244;48.792;9.172;2023-06-14T15:53:36;97293.91;;;29.42;28.93
60375;BME280;70244;48.792;9.172;2023-06-14T15:56:06;97291.72;;;29.56;28.75
60375;BME280;70244;48.792;9.172;2023-06-14T15:58:37;97292.78;;;29.59;28.86
60375;BME280;70244;48.792;9.172;2023-06-14T16:01:07;97292.36;;;29.66;29.05
60375;BME280;70244;48.792;9.172;2023-06-14T16:03:38;97296.76;;;29.88;28.51
60375;BME280;70244;48.792;9.172;2023-06-14T16:06:08;97298.33;;;29.86;28.78
60375;BME280;70244;48.792;9.172;2023-06-14T16:08:38;97296.68;;;29.93;28.53
60375;BME280;70244;48.792;9.172;2023-06-14T16:11:09;97293.08;;;30.10;28.15
60375;BME280;70244;48.792;9.172;2023-06-14T16:13:41;97292.75;;;30.09;28.25
60375;BME280;70244;48.792;9.172;2023-06-14T16:16:10;97295.86;;;30.13;28.09
60375;BME280;70244;48.792;9.172;2023-06-14T16:18:41;97294.50;;;30.25;27.62
60375;BME280;70244;48.792;9.172;2023-06-14T16:21:11;97295.52;;;30.07;27.63
60375;BME280;70244;48.792;9.172;2023-06-14T16:23:42;97292.58;;;29.88;28.37
60375;BME280;70244;48.792;9.172;2023-06-14T16:26:12;97296.53;;;30.03;27.99
60375;BME280;70244;48.792;9.172;2023-06-14T16:28:42;97298.57;;;29.94;27.92
60375;BME280;70244;48.792;9.172;2023-06-14T16:31:13;97298.55;;;29.97;27.81
60375;BME280;70244;48.792;9.172;2023-06-14T16:33:44;97293.71;;;29.70;27.73
60375;BME280;70244;48.792;9.172;2023-06-14T16:36:14;97296.23;;;29.47;28.76
60375;BME280;70244;48.792;9.172;2023-06-14T16:38:45;97298.31;;;29.29;28.98
60375;BME280;70244;48.792;9.172;2023-06-14T16:41:16;97298.54;;;29.50;28.89
60375;BME280;70244;48.792;9.172;2023-06-14T16:43:46;97301.93;;;29.23;30.30
60375;BME280;70244;48.792;9.172;2023-06-14T16:46:27;97301.76;;;29.31;30.00
60375;BME280;70244;48.792;9.172;2023-06-14T16:48:47;97300.13;;;29.61;29.78
60375;BME280;70244;48.792;9.172;2023-06-14T16:51:18;97301.65;;;29.71;29.87
60375;BME280;70244;48.792;9.172;2023-06-14T16:53:48;97307.83;;;29.57;29.99
60375;BME280;70244;48.792;9.172;2023-06-14T16:56:20;97305.30;;;29.73;29.66
60375;BME280;70244;48.792;9.172;2023-06-14T16:58:49;97306.95;;;29.85;29.65
60375;BME280;70244;48.792;9.172;2023-06-14T17:01:19;97307.06;;;29.77;30.38
60375;BME280;70244;48.792;9.172;2023-06-14T17:03:50;97311.05;;;29.13;32.48
60375;BME280;70244;48.792;9.172;2023-06-14T17:06:20;97317.77;;;29.46;31.54
60375;BME280;70244;48.792;9.172;2023-06-14T17:08:51;97320.57;;;29.87;31.40
60375;BME280;70244;48.792;9.172;2023-06-14T17:11:21;97320.25;;;29.66;32.33
60375;BME280;70244;48.792;9.172;2023-06-14T17:13:51;97325.24;;;30.41;30.20
60375;BME280;70244;48.792;9.172;2023-06-14T17:16:22;97325.36;;;29.95;32.81
60375;BME280;70244;48.792;9.172;2023-06-14T17:18:52;97328.90;;;30.41;32.66
60375;BME280;70244;48.792;9.172;2023-06-14T17:21:22;97333.70;;;30.50;30.78
60375;BME280;70244;48.792;9.172;2023-06-14T17:23:52;97332.85;;;30.23;31.91
60375;BME280;70244;48.792;9.172;2023-06-14T17:26:23;97331.27;;;30.03;32.36
60375;BME280;70244;48.792;9.172;2023-06-14T17:28:54;97336.64;;;30.42;33.60
60375;BME280;70244;48.792;9.172;2023-06-14T17:31:24;97339.13;;;30.33;32.46
60375;BME280;70244;48.792;9.172;2023-06-14T17:33:54;97341.77;;;30.47;31.58
60375;BME280;70244;48.792;9.172;2023-06-14T17:36:25;97343.48;;;30.33;33.09